createdAt,value
2022-09-16T00:01:13.651Z,13.63
2022-09-16T00:06:23.968Z,13.43
2022-09-16T00:11:27.357Z,12.73
2022-09-16T00:16:31.528Z,13.50
2022-09-16T00:21:36.397Z,12.93
2022-09-16T00:26:39.988Z,15.20
2022-09-16T00:31:43.382Z,12.98
2022-09-16T00:36:48.085Z,16.25
2022-09-16T00:41:51.414Z,16.07
2022-09-16T00:46:56.294Z,17.83
2022-09-16T00:52:04.002Z,17.05
2022-09-16T00:57:10.722Z,17.00
2022-09-16T01:02:17.257Z,18.10
2022-09-16T01:07:29.391Z,16.45
2022-09-16T01:12:34.595Z,18.60
2022-09-16T01:17:54.202Z,18.77
2022-09-16T01:23:19.858Z,16.60
2022-09-16T01:28:58.610Z,17.20
2022-09-16T01:34:13.422Z,17.30
2022-09-16T01:39:30.131Z,18.07
2022-09-16T01:44:46.146Z,16.95
2022-09-16T01:50:00.352Z,16.67
2022-09-16T01:55:07.549Z,16.90
2022-09-16T02:00:14.448Z,18.90
2022-09-16T02:05:24.034Z,20.77
2022-09-16T02:10:31.973Z,18.13
2022-09-16T02:15:36.041Z,17.77
2022-09-16T02:20:44.203Z,17.38
2022-09-16T02:25:50.593Z,17.37
2022-09-16T02:30:58.450Z,18.25
2022-09-16T02:36:05.602Z,18.88
2022-09-16T02:41:14.616Z,17.23
2022-09-16T02:46:26.880Z,16.75
2022-09-16T02:51:37.395Z,17.90
2022-09-16T02:56:42.902Z,16.92
2022-09-16T03:01:47.919Z,19.63
2022-09-16T03:06:52.589Z,19.52
2022-09-16T03:12:20.924Z,21.73
2022-09-16T03:17:39.159Z,23.10
2022-09-16T03:22:50.657Z,23.27
2022-09-16T03:27:59.933Z,22.95
2022-09-16T03:33:10.820Z,23.83
2022-09-16T03:38:18.221Z,27.42
2022-09-16T03:43:21.429Z,23.48
2022-09-16T03:48:24.838Z,28.52
2022-09-16T03:53:29.517Z,29.75
2022-09-16T03:58:32.705Z,28.30
2022-09-16T04:03:37.518Z,28.87
2022-09-16T04:08:44.076Z,33.08
2022-09-16T04:13:47.307Z,30.20
2022-09-16T04:18:50.660Z,30.87
2022-09-16T04:23:55.704Z,30.53
2022-09-16T04:28:59.620Z,31.25
2022-09-16T04:34:03.246Z,34.13
2022-09-16T04:39:07.903Z,29.80
2022-09-16T04:44:12.154Z,28.30
2022-09-16T04:49:15.421Z,28.87
2022-09-16T04:54:20.182Z,28.80
2022-09-16T04:59:23.621Z,29.90
2022-09-16T05:04:26.888Z,32.20
2022-09-16T05:09:31.697Z,27.08
2022-09-16T05:14:34.874Z,28.77
2022-09-16T05:19:38.071Z,27.90
2022-09-16T05:24:44.546Z,27.20
2022-09-16T05:29:48.285Z,27.30
2022-09-16T05:34:51.592Z,27.02
2022-09-16T05:39:56.914Z,24.17
2022-09-16T05:45:00.163Z,26.05
2022-09-16T05:50:03.393Z,24.83
2022-09-16T05:55:08.916Z,24.95
2022-09-16T06:00:14.589Z,23.65
2022-09-16T06:05:17.828Z,18.98
2022-09-16T06:10:22.381Z,19.70
2022-09-16T06:15:25.700Z,19.83
2022-09-16T06:20:28.933Z,21.20
2022-09-16T06:25:34.231Z,19.47
2022-09-16T06:30:37.775Z,19.13
2022-09-16T06:35:41.008Z,20.33
2022-09-16T06:40:45.609Z,17.20
2022-09-16T06:45:48.844Z,14.77
2022-09-16T06:50:59.203Z,13.27
2022-09-16T06:56:05.961Z,11.80
2022-09-16T07:01:11.123Z,13.30
2022-09-16T07:06:15.820Z,14.48
2022-09-16T07:11:21.936Z,14.63
2022-09-16T07:16:27.186Z,14.98
2022-09-16T07:21:31.081Z,15.38
2022-09-16T07:26:37.780Z,13.52
2022-09-16T07:31:41.370Z,10.00
2022-09-16T07:36:46.247Z,9.50
2022-09-16T07:41:50.853Z,12.27
2022-09-16T07:46:54.229Z,9.25
2022-09-16T07:51:57.529Z,8.30
2022-09-16T07:57:02.226Z,10.45
2022-09-16T08:02:05.603Z,10.15
2022-09-16T08:07:08.961Z,9.13
2022-09-16T08:12:14.743Z,10.30
2022-09-16T08:17:18.015Z,8.60
2022-09-16T08:22:23.519Z,8.30
2022-09-16T08:27:28.179Z,6.28
2022-09-16T08:32:32.114Z,7.67
2022-09-16T08:37:36.231Z,6.20
2022-09-16T08:42:56.635Z,6.53
2022-09-16T08:48:08.372Z,6.53
2022-09-16T08:53:15.261Z,5.63
2022-09-16T08:58:22.221Z,7.10
2022-09-16T09:03:37.673Z,7.35
2022-09-16T09:08:50.941Z,6.38
2022-09-16T09:14:11.749Z,5.20
2022-09-16T09:19:31.529Z,4.80
2022-09-16T09:25:08.410Z,4.03
2022-09-16T09:30:18.574Z,3.85
2022-09-16T09:35:32.296Z,3.70
2022-09-16T09:40:43.088Z,4.05
2022-09-16T09:45:59.391Z,3.38
2022-09-16T09:51:08.684Z,4.32
2022-09-16T09:56:19.992Z,3.95
2022-09-16T10:01:24.941Z,4.53
2022-09-16T10:06:31.803Z,5.18
2022-09-16T10:11:35.015Z,5.60
2022-09-16T10:16:40.955Z,3.70
2022-09-16T10:21:47.808Z,4.90
2022-09-16T10:26:51.081Z,2.95
2022-09-16T10:31:56.503Z,1.70
2022-09-16T10:37:02.603Z,1.80
2022-09-16T10:42:07.548Z,2.47
2022-09-16T10:47:21.205Z,2.40
2022-09-16T10:52:25.875Z,2.00
2022-09-16T10:57:31.309Z,2.00
2022-09-16T11:03:08.405Z,3.47
2022-09-16T11:08:18.705Z,2.93
2022-09-16T11:13:39.734Z,3.08
2022-09-16T11:18:54.262Z,1.83
2022-09-16T11:24:15.125Z,1.40
2022-09-16T11:29:31.073Z,2.63
2022-09-16T11:34:48.098Z,3.40
2022-09-16T11:40:07.659Z,2.10
2022-09-16T11:45:28.970Z,2.50
2022-09-16T11:50:45.336Z,4.57
2022-09-16T11:55:53.473Z,4.33
2022-09-16T12:01:02.869Z,2.53
2022-09-16T12:06:11.484Z,2.22
2022-09-16T12:11:21.935Z,3.55
2022-09-16T12:16:34.471Z,2.90
2022-09-16T12:21:46.157Z,2.53
2022-09-16T12:26:53.934Z,3.83
2022-09-16T12:32:01.867Z,3.20
2022-09-16T12:37:23.496Z,3.63
2022-09-16T12:42:53.607Z,3.53
2022-09-16T12:48:32.729Z,1.93
2022-09-16T12:53:49.762Z,2.50
2022-09-16T12:59:25.944Z,3.27
2022-09-16T13:04:33.082Z,2.58
2022-09-16T13:09:39.920Z,4.38
2022-09-16T13:14:48.285Z,3.93
2022-09-16T13:19:53.202Z,3.00
2022-09-16T13:25:06.846Z,3.05
2022-09-16T13:30:33.739Z,1.60
2022-09-16T13:35:41.824Z,3.20
2022-09-16T13:40:57.045Z,4.68
2022-09-16T13:46:06.895Z,1.80
2022-09-16T13:51:17.617Z,3.38
2022-09-16T13:56:40.487Z,2.07
2022-09-16T14:01:59.740Z,3.17
2022-09-16T14:07:20.507Z,5.30
2022-09-16T14:12:34.898Z,2.15
2022-09-16T14:17:42.604Z,3.00
2022-09-16T14:22:46.261Z,2.43
2022-09-16T14:27:50.892Z,1.70
2022-09-16T14:32:54.217Z,3.22
2022-09-16T14:38:02.006Z,3.03
2022-09-16T14:43:09.284Z,3.42
2022-09-16T14:48:15.611Z,2.83
2022-09-16T14:53:35.357Z,4.68
2022-09-16T14:58:40.993Z,1.90
2022-09-16T15:03:48.660Z,1.88
2022-09-16T15:08:57.319Z,2.40
2022-09-16T15:14:02.381Z,2.22
2022-09-16T15:19:07.482Z,1.65
2022-09-16T15:24:21.106Z,2.63
2022-09-16T15:29:32.425Z,1.10
2022-09-16T15:34:36.309Z,3.40
2022-09-16T15:39:40.824Z,3.00
2022-09-16T15:44:50.637Z,2.20
2022-09-16T15:49:58.808Z,1.85
2022-09-16T15:55:04.640Z,3.17
2022-09-16T16:00:13.093Z,3.00
2022-09-16T16:05:19.278Z,2.30
2022-09-16T16:10:24.832Z,3.63
2022-09-16T16:15:32.771Z,3.75
2022-09-16T16:20:38.172Z,2.13
2022-09-16T16:25:41.411Z,2.80
2022-09-16T16:30:48.385Z,3.50
2022-09-16T16:35:51.767Z,2.67
2022-09-16T16:40:55.028Z,3.13
2022-09-16T16:45:59.891Z,3.60
2022-09-16T16:51:06.237Z,2.47
2022-09-16T16:56:14.834Z,6.40
2022-09-16T17:01:21.259Z,5.53
2022-09-16T17:06:24.541Z,11.15
2022-09-16T17:11:29.137Z,5.90
2022-09-16T17:16:35.350Z,4.78
2022-09-16T17:21:39.735Z,4.97
2022-09-16T17:26:43.006Z,4.03
2022-09-16T17:31:47.613Z,3.97
2022-09-16T17:36:50.847Z,4.97
2022-09-16T17:41:54.723Z,3.63
2022-09-16T17:46:59.324Z,6.93
2022-09-16T17:52:03.084Z,3.40
2022-09-16T17:57:06.355Z,4.15
2022-09-16T18:02:12.199Z,5.55
2022-09-16T18:07:15.640Z,5.40
2022-09-16T18:12:18.852Z,3.85
2022-09-16T18:17:24.592Z,4.30
2022-09-16T18:22:28.319Z,4.93
2022-09-16T18:27:32.112Z,5.80
2022-09-16T18:32:36.717Z,5.00
2022-09-16T18:37:40.347Z,3.95
2022-09-16T18:42:43.594Z,3.83
2022-09-16T18:47:48.176Z,4.57
2022-09-16T18:52:51.533Z,6.68
2022-09-16T18:57:54.837Z,5.18
2022-09-16T19:02:59.450Z,3.15
2022-09-16T19:08:02.826Z,4.97
2022-09-16T19:13:06.416Z,4.15
2022-09-16T19:18:13.364Z,4.87
2022-09-16T19:23:16.749Z,4.88
2022-09-16T19:28:20.612Z,4.82
2022-09-16T19:33:25.209Z,4.68
2022-09-16T19:38:29.328Z,4.10
2022-09-16T19:43:33.053Z,2.90
2022-09-16T19:48:39.238Z,3.78
2022-09-16T19:53:43.929Z,5.65
2022-09-16T19:58:48.150Z,51.30
2022-09-16T20:03:53.340Z,5.37
2022-09-16T20:08:58.795Z,4.95
2022-09-16T20:14:05.470Z,7.90
2022-09-16T20:19:12.351Z,5.40
2022-09-16T20:24:18.356Z,6.40
2022-09-16T20:29:22.229Z,5.50
2022-09-16T20:34:26.855Z,5.93
2022-09-16T20:39:30.154Z,5.13
2022-09-16T20:44:33.390Z,3.97
2022-09-16T20:49:37.981Z,3.40
2022-09-16T20:54:41.212Z,3.60
2022-09-16T20:59:44.424Z,3.25
2022-09-16T21:04:48.998Z,3.20
2022-09-16T21:09:52.240Z,2.60
2022-09-16T21:14:55.470Z,2.10
2022-09-16T21:20:02.257Z,3.10
2022-09-16T21:25:06.208Z,2.22
2022-09-16T21:30:11.188Z,2.90
2022-09-16T21:35:15.929Z,2.13
2022-09-16T21:40:22.869Z,2.30
2022-09-16T21:45:26.204Z,2.17
2022-09-16T21:50:31.749Z,2.23
2022-09-16T21:55:35.715Z,1.77
2022-09-16T22:00:39.408Z,2.37
2022-09-16T22:05:44.050Z,2.97
2022-09-16T22:10:47.540Z,3.30
2022-09-16T22:15:51.275Z,2.50
2022-09-16T22:20:58.713Z,3.97
2022-09-16T22:26:06.595Z,5.00
2022-09-16T22:31:10.934Z,3.75
2022-09-16T22:36:17.165Z,4.20
2022-09-16T22:41:21.080Z,3.20
2022-09-16T22:46:26.670Z,3.67
2022-09-16T22:51:32.857Z,5.63
2022-09-16T22:56:36.473Z,2.35
2022-09-16T23:01:41.127Z,2.45
2022-09-16T23:06:46.807Z,4.15
2022-09-16T23:11:50.035Z,2.63
2022-09-16T23:16:54.789Z,2.30
2022-09-16T23:21:59.385Z,1.60
2022-09-16T23:27:02.642Z,2.13
2022-09-16T23:32:06.152Z,2.07
2022-09-16T23:37:10.736Z,3.37
2022-09-16T23:42:14.418Z,2.53
2022-09-16T23:47:17.682Z,4.13
2022-09-16T23:52:22.295Z,3.53
2022-09-16T23:57:25.888Z,5.35
